createdAt,value
2022-12-16T00:01:07.085Z,90.70
2022-12-16T00:03:36.789Z,90.81
2022-12-16T00:06:04.948Z,90.25
2022-12-16T00:08:36.830Z,89.50
2022-12-16T00:11:05.594Z,90.03
2022-12-16T00:13:34.754Z,90.83
2022-12-16T00:16:06.149Z,91.67
2022-12-16T00:18:33.659Z,91.38
2022-12-16T00:21:02.538Z,90.85
2022-12-16T00:23:30.861Z,91.40
2022-12-16T00:25:58.770Z,91.04
2022-12-16T00:28:26.356Z,90.40
2022-12-16T00:30:55.103Z,90.30
2022-12-16T00:33:24.441Z,90.17
2022-12-16T00:35:52.384Z,89.88
2022-12-16T00:38:23.796Z,89.73
2022-12-16T00:40:52.029Z,89.46
2022-12-16T00:43:20.613Z,89.66
2022-12-16T00:45:48.707Z,89.35
2022-12-16T00:48:16.921Z,89.39
2022-12-16T00:50:47.087Z,89.83
2022-12-16T00:53:14.515Z,90.84
2022-12-16T00:55:43.277Z,90.90
2022-12-16T00:58:10.731Z,90.35
2022-12-16T01:00:38.583Z,88.76
2022-12-16T01:03:06.105Z,88.46
2022-12-16T01:05:33.641Z,87.57
2022-12-16T01:08:01.119Z,87.10
2022-12-16T01:10:28.523Z,86.62
2022-12-16T01:12:57.304Z,86.44
2022-12-16T01:15:24.759Z,86.82
2022-12-16T01:17:52.186Z,87.68
2022-12-16T01:20:19.663Z,88.87
2022-12-16T01:22:47.336Z,87.91
2022-12-16T01:25:15.344Z,87.44
2022-12-16T01:27:42.767Z,87.83
2022-12-16T01:30:12.990Z,88.54
2022-12-16T01:32:40.436Z,89.06
2022-12-16T01:35:29.429Z,89.21
2022-12-16T01:37:56.202Z,89.16
2022-12-16T01:40:25.587Z,90.33
2022-12-16T01:42:53.027Z,89.59
2022-12-16T01:45:31.484Z,90.16
2022-12-16T01:48:00.794Z,91.02
2022-12-16T01:50:29.879Z,90.41
2022-12-16T01:52:58.924Z,89.37
2022-12-16T01:55:29.312Z,89.35
2022-12-16T01:57:59.356Z,88.77
2022-12-16T02:00:28.144Z,88.11
2022-12-16T02:02:56.548Z,89.00
2022-12-16T02:05:24.369Z,90.26
2022-12-16T02:07:56.437Z,90.24
2022-12-16T02:10:40.340Z,89.23
2022-12-16T02:13:17.998Z,89.46
2022-12-16T02:15:51.839Z,88.77
2022-12-16T02:18:24.806Z,88.11
2022-12-16T02:21:16.915Z,87.82
2022-12-16T02:24:02.185Z,87.43
2022-12-16T02:26:49.718Z,87.16
2022-12-16T02:29:41.691Z,86.40
2022-12-16T02:32:15.763Z,86.35
2022-12-16T02:34:50.329Z,87.33
2022-12-16T02:37:23.553Z,87.47
2022-12-16T02:39:54.479Z,86.42
2022-12-16T02:42:27.642Z,86.25
2022-12-16T02:45:00.555Z,86.23
2022-12-16T02:47:29.343Z,85.91
2022-12-16T02:49:57.380Z,85.55
2022-12-16T02:52:26.547Z,87.01
2022-12-16T02:54:56.625Z,88.45
2022-12-16T02:57:43.531Z,88.72
2022-12-16T03:00:13.641Z,88.46
2022-12-16T03:02:49.116Z,87.72
2022-12-16T03:05:21.565Z,86.96
2022-12-16T03:07:49.912Z,86.84
2022-12-16T03:10:20.868Z,86.91
2022-12-16T03:12:48.294Z,86.10
2022-12-16T03:15:20.343Z,86.77
2022-12-16T03:17:50.262Z,87.26
2022-12-16T03:20:19.550Z,87.59
2022-12-16T03:22:48.809Z,88.11
2022-12-16T03:25:16.682Z,88.34
2022-12-16T03:27:50.412Z,88.55
2022-12-16T03:30:19.174Z,88.48
2022-12-16T03:32:51.557Z,87.78
2022-12-16T03:35:21.776Z,87.37
2022-12-16T03:37:51.438Z,86.87
2022-12-16T03:40:21.441Z,86.59
2022-12-16T03:42:49.747Z,86.41
2022-12-16T03:45:20.399Z,85.83
2022-12-16T03:47:51.736Z,86.13
2022-12-16T03:50:21.057Z,86.25
2022-12-16T03:52:48.479Z,86.34
2022-12-16T03:55:16.126Z,85.85
2022-12-16T03:57:43.542Z,87.06
2022-12-16T04:00:12.500Z,88.02
2022-12-16T04:02:40.322Z,89.64
2022-12-16T04:05:10.082Z,90.60
2022-12-16T04:07:37.553Z,89.73
2022-12-16T04:10:06.119Z,88.88
2022-12-16T04:12:51.400Z,87.98
2022-12-16T04:15:32.977Z,87.25
2022-12-16T04:18:18.011Z,86.41
2022-12-16T04:21:06.587Z,86.40
2022-12-16T04:23:52.285Z,86.66
2022-12-16T04:26:19.776Z,86.83
2022-12-16T04:28:47.183Z,87.19
2022-12-16T04:31:14.753Z,86.70
2022-12-16T04:33:59.730Z,86.71
2022-12-16T04:36:46.363Z,87.24
2022-12-16T04:39:31.256Z,87.10
2022-12-16T04:42:16.233Z,87.17
2022-12-16T04:45:01.251Z,88.15
2022-12-16T04:47:45.974Z,88.46
2022-12-16T04:50:31.023Z,88.64
2022-12-16T04:53:17.173Z,88.59
2022-12-16T04:56:04.346Z,88.91
2022-12-16T04:58:50.257Z,88.81
2022-12-16T05:01:35.676Z,88.99
2022-12-16T05:04:20.671Z,89.19
2022-12-16T05:07:05.598Z,89.34
2022-12-16T05:09:52.267Z,88.69
2022-12-16T05:12:37.017Z,88.84
2022-12-16T05:15:22.257Z,88.09
2022-12-16T05:18:07.319Z,87.62
2022-12-16T05:20:52.622Z,87.67
2022-12-16T05:23:37.594Z,88.09
2022-12-16T05:26:24.047Z,87.74
2022-12-16T05:29:08.730Z,87.43
2022-12-16T05:31:53.674Z,86.68
2022-12-16T05:34:38.724Z,86.00
2022-12-16T05:37:24.064Z,85.78
2022-12-16T05:40:08.763Z,87.73
2022-12-16T05:42:55.295Z,87.60
2022-12-16T05:45:40.441Z,87.24
2022-12-16T05:48:25.656Z,86.86
2022-12-16T05:51:10.777Z,87.02
2022-12-16T05:53:55.753Z,86.48
2022-12-16T05:56:40.657Z,85.68
2022-12-16T05:59:27.116Z,86.40
2022-12-16T06:02:11.973Z,85.97
2022-12-16T06:04:56.831Z,85.79
2022-12-16T06:07:41.867Z,85.46
2022-12-16T06:10:27.676Z,85.28
2022-12-16T06:13:12.302Z,85.33
2022-12-16T06:16:06.652Z,85.42
2022-12-16T06:18:53.471Z,84.98
2022-12-16T06:21:38.493Z,88.25
2022-12-16T06:24:23.740Z,89.65
2022-12-16T06:27:08.587Z,89.77
2022-12-16T06:29:53.711Z,89.74
2022-12-16T06:32:40.384Z,90.03
2022-12-16T06:35:25.991Z,89.63
2022-12-16T06:38:10.747Z,87.66
2022-12-16T06:40:56.116Z,87.44
2022-12-16T06:43:41.164Z,88.30
2022-12-16T06:46:26.172Z,88.70
2022-12-16T06:49:12.663Z,88.41
2022-12-16T06:51:57.666Z,88.98
2022-12-16T06:54:42.868Z,88.86
2022-12-16T06:57:27.564Z,88.37
2022-12-16T07:00:12.571Z,87.79
2022-12-16T07:02:57.902Z,87.46
2022-12-16T07:05:44.327Z,87.11
2022-12-16T07:08:29.276Z,86.86
2022-12-16T07:11:17.040Z,86.33
2022-12-16T07:14:02.805Z,86.21
2022-12-16T07:16:48.177Z,85.25
2022-12-16T07:19:34.248Z,85.39
2022-12-16T07:22:20.651Z,86.24
2022-12-16T07:25:05.608Z,87.33
2022-12-16T07:27:50.517Z,87.12
2022-12-16T07:30:35.780Z,86.28
2022-12-16T07:33:20.691Z,86.34
2022-12-16T07:36:05.894Z,85.83
2022-12-16T07:38:52.177Z,85.71
2022-12-16T07:41:37.381Z,85.66
2022-12-16T07:44:22.900Z,86.34
2022-12-16T07:47:21.095Z,86.73
2022-12-16T07:50:06.292Z,86.84
2022-12-16T07:52:51.115Z,86.06
2022-12-16T07:55:37.803Z,86.48
2022-12-16T07:58:22.584Z,85.81
2022-12-16T08:01:09.623Z,85.75
2022-12-16T08:03:54.953Z,85.82
2022-12-16T08:06:41.052Z,86.37
2022-12-16T08:09:25.942Z,86.90
2022-12-16T08:12:12.148Z,86.60
2022-12-16T08:15:02.522Z,86.72
2022-12-16T08:17:47.807Z,87.13
2022-12-16T08:20:32.196Z,88.44
2022-12-16T08:23:16.979Z,89.02
2022-12-16T08:26:01.925Z,88.67
2022-12-16T08:28:48.635Z,89.28
2022-12-16T08:31:33.904Z,88.70
2022-12-16T08:34:18.943Z,89.37
2022-12-16T08:37:15.562Z,89.92
2022-12-16T08:40:26.081Z,89.60
2022-12-16T08:43:10.889Z,87.97
2022-12-16T08:45:58.883Z,88.18
2022-12-16T08:48:43.740Z,87.16
2022-12-16T08:51:29.137Z,87.18
2022-12-16T08:54:14.107Z,87.60
2022-12-16T08:56:59.669Z,87.00
2022-12-16T08:59:44.899Z,87.38
2022-12-16T09:02:31.484Z,87.59
2022-12-16T09:05:16.603Z,87.14
2022-12-16T09:08:01.715Z,86.98
2022-12-16T09:10:47.003Z,86.93
2022-12-16T09:13:33.854Z,88.21
2022-12-16T09:16:19.954Z,88.79
2022-12-16T09:19:06.547Z,89.07
2022-12-16T09:21:51.833Z,88.49
2022-12-16T09:24:37.104Z,88.34
2022-12-16T09:27:22.406Z,87.66
2022-12-16T09:30:07.477Z,87.34
2022-12-16T09:32:52.911Z,88.20
2022-12-16T09:35:39.159Z,87.12
2022-12-16T09:38:24.147Z,88.22
2022-12-16T09:41:08.971Z,86.99
2022-12-16T09:44:02.476Z,87.83
2022-12-16T09:46:52.421Z,86.57
2022-12-16T09:49:42.945Z,86.27
2022-12-16T09:52:33.728Z,86.49
2022-12-16T09:55:19.308Z,86.60
2022-12-16T09:58:04.983Z,86.57
2022-12-16T10:00:49.681Z,86.09
2022-12-16T10:03:40.673Z,86.54
2022-12-16T10:06:30.120Z,86.41
2022-12-16T10:09:17.887Z,86.57
2022-12-16T10:12:10.682Z,86.59
2022-12-16T10:15:01.261Z,86.59
2022-12-16T10:17:46.079Z,87.52
2022-12-16T10:20:43.663Z,87.12
2022-12-16T10:23:33.260Z,87.28
2022-12-16T10:26:23.720Z,87.47
2022-12-16T10:29:12.480Z,87.45
2022-12-16T10:31:58.049Z,86.99
2022-12-16T10:34:47.379Z,88.45
2022-12-16T10:37:35.236Z,87.95
2022-12-16T10:40:36.026Z,87.89
2022-12-16T10:43:25.524Z,86.55
2022-12-16T10:46:20.363Z,86.88
2022-12-16T10:49:05.509Z,86.60
2022-12-16T10:51:50.483Z,86.88
2022-12-16T10:54:51.746Z,87.82
2022-12-16T10:57:45.643Z,87.18
2022-12-16T11:00:34.817Z,86.93
2022-12-16T11:03:39.074Z,87.02
2022-12-16T11:06:25.195Z,86.70
2022-12-16T11:09:10.228Z,87.72
2022-12-16T11:11:55.519Z,87.57
2022-12-16T11:15:05.405Z,87.01
2022-12-16T11:17:49.485Z,87.39
2022-12-16T11:20:36.905Z,87.58
2022-12-16T11:23:38.635Z,85.75
2022-12-16T11:26:34.572Z,85.18
2022-12-16T11:29:23.832Z,84.94
2022-12-16T11:32:13.532Z,85.79
2022-12-16T11:35:02.499Z,84.64
2022-12-16T11:37:47.768Z,85.81
2022-12-16T11:40:35.033Z,85.85
2022-12-16T11:43:21.443Z,86.10
2022-12-16T11:46:07.641Z,86.43
2022-12-16T11:48:57.087Z,85.32
2022-12-16T11:51:44.795Z,85.02
2022-12-16T11:54:34.655Z,84.56
2022-12-16T11:57:21.819Z,85.08
2022-12-16T12:00:11.120Z,85.09
2022-12-16T12:03:00.792Z,84.10
2022-12-16T12:05:47.782Z,85.08
2022-12-16T12:08:39.024Z,84.57
2022-12-16T12:11:29.352Z,84.63
2022-12-16T12:14:23.860Z,83.99
2022-12-16T12:17:19.907Z,83.88
2022-12-16T12:20:14.953Z,83.51
2022-12-16T12:23:00.387Z,83.32
2022-12-16T12:26:01.529Z,83.43
2022-12-16T12:28:58.411Z,83.42
2022-12-16T12:31:51.119Z,83.54
2022-12-16T12:34:41.604Z,83.36
2022-12-16T12:37:28.899Z,81.06
2022-12-16T12:40:22.345Z,80.90
2022-12-16T12:43:12.163Z,80.40
2022-12-16T12:46:08.820Z,78.92
2022-12-16T12:49:00.634Z,80.54
2022-12-16T12:51:49.845Z,81.03
2022-12-16T12:54:41.741Z,81.77
2022-12-16T12:57:28.257Z,81.34
2022-12-16T13:00:17.603Z,83.29
2022-12-16T13:03:06.464Z,83.44
2022-12-16T13:05:53.821Z,82.75
2022-12-16T13:09:01.587Z,82.92
2022-12-16T13:11:46.824Z,83.05
2022-12-16T13:15:01.518Z,83.88
2022-12-16T13:17:48.124Z,83.62
2022-12-16T13:20:55.355Z,83.26
2022-12-16T13:23:47.475Z,83.66
2022-12-16T13:26:34.260Z,83.67
2022-12-16T13:29:25.327Z,83.35
2022-12-16T13:32:19.065Z,82.94
2022-12-16T13:35:17.491Z,83.62
2022-12-16T13:38:10.164Z,83.14
2022-12-16T13:41:06.748Z,84.16
2022-12-16T13:44:05.369Z,83.60
2022-12-16T13:47:02.366Z,83.39
2022-12-16T13:49:59.914Z,82.56
2022-12-16T13:52:54.444Z,82.76
2022-12-16T13:55:45.745Z,83.02
2022-12-16T13:58:38.227Z,83.58
2022-12-16T14:01:28.680Z,83.30
2022-12-16T14:04:14.234Z,83.44
2022-12-16T14:07:02.303Z,83.24
2022-12-16T14:09:55.977Z,83.70
2022-12-16T14:13:08.471Z,83.59
2022-12-16T14:15:59.403Z,84.59
2022-12-16T14:18:51.243Z,84.28
2022-12-16T14:21:39.548Z,84.71
2022-12-16T14:24:39.917Z,84.46
2022-12-16T14:27:31.806Z,84.06
2022-12-16T14:30:17.015Z,84.47
2022-12-16T14:33:02.190Z,83.98
2022-12-16T14:35:46.842Z,84.22
2022-12-16T14:38:39.603Z,84.65
2022-12-16T14:41:24.629Z,85.18
2022-12-16T14:44:11.445Z,85.66
2022-12-16T14:46:56.201Z,86.05
2022-12-16T14:49:42.776Z,86.69
2022-12-16T14:52:36.283Z,86.62
2022-12-16T14:55:30.912Z,86.23
2022-12-16T14:58:24.683Z,88.15
2022-12-16T15:01:15.834Z,88.83
2022-12-16T15:04:03.194Z,89.07
2022-12-16T15:06:50.603Z,89.50
2022-12-16T15:09:41.684Z,90.22
2022-12-16T15:12:27.808Z,91.20
2022-12-16T15:15:13.636Z,90.23
2022-12-16T15:18:08.595Z,89.71
2022-12-16T15:21:01.862Z,90.60
2022-12-16T15:23:49.683Z,91.10
2022-12-16T15:26:35.902Z,90.57
2022-12-16T15:29:21.447Z,90.07
2022-12-16T15:32:06.514Z,90.37
2022-12-16T15:34:58.039Z,89.67
2022-12-16T15:37:47.468Z,89.13
2022-12-16T15:40:42.326Z,89.57
2022-12-16T15:43:41.404Z,89.40
2022-12-16T15:46:36.464Z,89.68
2022-12-16T15:49:22.093Z,89.73
2022-12-16T15:52:09.984Z,89.97
2022-12-16T15:55:09.122Z,91.04
2022-12-16T15:57:55.047Z,90.81
2022-12-16T16:00:42.541Z,91.46
2022-12-16T16:03:38.692Z,90.17
2022-12-16T16:06:33.527Z,90.49
2022-12-16T16:09:20.102Z,90.02
2022-12-16T16:12:05.120Z,89.95
2022-12-16T16:14:49.991Z,90.28
2022-12-16T16:17:40.113Z,90.45
2022-12-16T16:20:28.039Z,89.45
2022-12-16T16:23:09.480Z,90.24
2022-12-16T16:26:00.531Z,90.18
2022-12-16T16:28:48.541Z,91.00
2022-12-16T16:31:33.381Z,91.42
2022-12-16T16:34:18.296Z,92.37
2022-12-16T16:37:03.448Z,92.92
2022-12-16T16:39:48.747Z,93.91
2022-12-16T16:42:35.280Z,94.12
2022-12-16T16:45:20.272Z,93.18
2022-12-16T16:48:01.866Z,94.66
2022-12-16T16:50:46.827Z,94.77
2022-12-16T16:53:34.065Z,93.84
2022-12-16T16:56:20.297Z,95.05
2022-12-16T16:59:06.950Z,94.72
2022-12-16T17:01:51.890Z,94.45
2022-12-16T17:04:37.015Z,93.44
2022-12-16T17:07:22.184Z,93.27
2022-12-16T17:10:07.418Z,92.11
2022-12-16T17:12:52.232Z,92.54
2022-12-16T17:15:40.340Z,92.39
2022-12-16T17:18:25.909Z,91.82
2022-12-16T17:21:11.556Z,91.72
2022-12-16T17:23:57.188Z,92.48
2022-12-16T17:26:42.746Z,93.10
2022-12-16T17:29:39.249Z,93.40
2022-12-16T17:32:25.903Z,92.12
2022-12-16T17:35:11.178Z,91.73
2022-12-16T17:37:56.718Z,91.84
2022-12-16T17:40:41.828Z,90.76
2022-12-16T17:43:27.055Z,91.44
2022-12-16T17:46:16.699Z,89.94
2022-12-16T17:49:03.133Z,88.86
2022-12-16T17:51:48.307Z,89.25
2022-12-16T17:54:33.675Z,89.65
2022-12-16T17:57:18.622Z,90.45
2022-12-16T18:00:03.905Z,91.60
2022-12-16T18:05:07.938Z,91.74
2022-12-16T18:07:53.006Z,92.02
2022-12-16T18:10:38.148Z,92.81
2022-12-16T18:13:22.971Z,92.80
2022-12-16T18:16:10.782Z,92.20
2022-12-16T18:18:55.973Z,91.32
2022-12-16T18:21:42.457Z,91.48
2022-12-16T18:24:28.067Z,90.72
2022-12-16T18:27:12.980Z,90.66
2022-12-16T18:29:58.374Z,91.24
2022-12-16T18:32:43.490Z,91.19
2022-12-16T18:35:28.380Z,92.78
2022-12-16T18:38:16.532Z,93.78
2022-12-16T18:41:04.999Z,93.93
2022-12-16T18:43:49.884Z,92.43
2022-12-16T18:46:34.603Z,92.08
2022-12-16T18:49:19.490Z,91.26
2022-12-16T18:52:04.520Z,90.38
2022-12-16T18:54:51.096Z,90.71
2022-12-16T18:57:39.632Z,89.97
2022-12-16T19:00:26.520Z,90.38
2022-12-16T19:03:11.417Z,90.17
2022-12-16T19:05:56.599Z,91.00
2022-12-16T19:08:41.596Z,90.47
2022-12-16T19:11:42.670Z,90.44
2022-12-16T19:14:27.501Z,90.68
2022-12-16T19:17:12.472Z,90.21
2022-12-16T19:19:57.531Z,90.91
2022-12-16T19:22:42.490Z,91.69
2022-12-16T19:25:28.024Z,90.87
2022-12-16T19:28:14.674Z,91.45
2022-12-16T19:30:59.805Z,90.76
2022-12-16T19:33:44.863Z,90.99
2022-12-16T19:36:30.324Z,91.44
2022-12-16T19:39:15.572Z,92.12
2022-12-16T19:42:00.589Z,92.42
2022-12-16T19:44:47.221Z,91.34
2022-12-16T19:47:31.957Z,92.14
2022-12-16T19:50:17.158Z,91.95
2022-12-16T19:53:02.113Z,91.49
2022-12-16T19:55:46.828Z,90.20
2022-12-16T19:58:37.702Z,90.44
2022-12-16T20:01:27.984Z,90.31
2022-12-16T20:04:13.804Z,89.34
2022-12-16T20:06:58.930Z,90.13
2022-12-16T20:09:46.390Z,90.34
2022-12-16T20:12:31.471Z,91.08
2022-12-16T20:15:16.529Z,91.24
2022-12-16T20:18:03.187Z,90.80
2022-12-16T20:20:47.874Z,90.23
2022-12-16T20:23:32.894Z,90.50
2022-12-16T20:26:19.487Z,90.03
2022-12-16T20:29:04.504Z,90.09
2022-12-16T20:31:50.294Z,90.05
2022-12-16T20:34:36.747Z,89.02
2022-12-16T20:37:22.201Z,89.12
2022-12-16T20:40:07.177Z,89.56
2022-12-16T20:42:53.347Z,90.31
2022-12-16T20:45:39.052Z,90.97
2022-12-16T20:48:24.483Z,90.79
2022-12-16T20:51:16.806Z,90.22
2022-12-16T20:54:06.467Z,90.38
2022-12-16T20:56:51.916Z,91.39
2022-12-16T20:59:38.159Z,91.40
2022-12-16T21:05:29.061Z,91.36
2022-12-16T21:08:15.735Z,92.08
2022-12-16T21:11:15.428Z,92.18
2022-12-16T21:14:02.533Z,91.79
2022-12-16T21:16:48.852Z,91.31
2022-12-16T21:19:34.228Z,90.47
2022-12-16T21:22:19.147Z,90.46
2022-12-16T21:25:05.515Z,91.23
2022-12-16T21:27:50.872Z,90.93
2022-12-16T21:30:41.248Z,90.29
2022-12-16T21:33:34.406Z,90.43
2022-12-16T21:36:19.673Z,90.86
2022-12-16T21:39:04.747Z,91.45
2022-12-16T21:41:59.864Z,91.81
2022-12-16T21:44:44.823Z,91.95
2022-12-16T21:47:29.939Z,91.68
2022-12-16T21:50:15.095Z,91.53
2022-12-16T21:53:00.132Z,91.75
2022-12-16T21:55:50.545Z,91.00
2022-12-16T21:58:37.387Z,91.95
2022-12-16T22:01:22.680Z,91.83
2022-12-16T22:04:10.045Z,91.59
2022-12-16T22:06:55.148Z,90.90
2022-12-16T22:09:40.364Z,90.65
2022-12-16T22:12:34.066Z,90.56
2022-12-16T22:15:20.687Z,90.68
2022-12-16T22:18:05.796Z,91.76
2022-12-16T22:20:51.812Z,90.94
2022-12-16T22:23:37.524Z,90.78
2022-12-16T22:26:22.769Z,90.92
2022-12-16T22:29:10.275Z,91.52
2022-12-16T22:31:56.697Z,90.96
2022-12-16T22:34:41.768Z,91.42
2022-12-16T22:37:29.599Z,90.61
2022-12-16T22:40:15.099Z,90.23
2022-12-16T22:43:00.348Z,90.45
2022-12-16T22:45:45.432Z,89.63
2022-12-16T22:48:31.603Z,89.44
2022-12-16T22:51:16.616Z,88.65
2022-12-16T22:54:01.635Z,89.31
2022-12-16T22:56:46.419Z,88.63
2022-12-16T22:59:31.221Z,89.21
2022-12-16T23:02:16.121Z,88.57
2022-12-16T23:05:02.620Z,89.35
2022-12-16T23:07:47.711Z,88.35
2022-12-16T23:10:35.273Z,89.10
2022-12-16T23:13:20.315Z,89.62
2022-12-16T23:16:21.915Z,89.58
2022-12-16T23:19:12.545Z,90.83
2022-12-16T23:21:59.303Z,90.29
2022-12-16T23:24:44.434Z,90.58
2022-12-16T23:27:29.569Z,91.27
2022-12-16T23:30:14.574Z,91.60
2022-12-16T23:33:11.202Z,91.98
2022-12-16T23:35:56.170Z,92.43
2022-12-16T23:38:42.659Z,92.56
2022-12-16T23:41:27.974Z,92.75
2022-12-16T23:44:12.670Z,92.78
2022-12-16T23:46:57.925Z,92.29
2022-12-16T23:49:43.136Z,92.43
2022-12-16T23:52:28.378Z,91.04
2022-12-16T23:55:15.109Z,90.63
2022-12-16T23:58:29.572Z,90.62
